sensor_id;sensor_type;location;lat;lon;timestamp;pressure;altitude;pressure_sealevel;temperature;humidity
71344;BME280;59146;43.850;25.948;2023-02-17T00:01:50;101970.50;;;2.15;73.75
71344;BME280;59146;43.850;25.948;2023-02-17T00:04:15;101870.13;;;1.82;73.98
71344;BME280;59146;43.850;25.948;2023-02-17T00:06:41;101958.38;;;2.41;73.26
71344;BME280;59146;43.850;25.948;2023-02-17T00:09:06;101921.53;;;2.20;73.50
71344;BME280;59146;43.850;25.948;2023-02-17T00:11:32;101894.16;;;1.84;74.28
71344;BME280;59146;43.850;25.948;2023-02-17T00:13:58;101961.06;;;2.17;75.10
71344;BME280;59146;43.850;25.948;2023-02-17T00:16:26;101902.72;;;1.92;75.00
71344;BME280;59146;43.850;25.948;2023-02-17T00:18:57;101976.44;;;2.35;74.27
71344;BME280;59146;43.850;25.948;2023-02-17T00:21:25;101895.81;;;1.97;74.68
71344;BME280;59146;43.850;25.948;2023-02-17T00:23:51;101877.84;;;1.75;75.29
71344;BME280;59146;43.850;25.948;2023-02-17T00:26:17;101931.84;;;2.15;75.73
71344;BME280;59146;43.850;25.948;2023-02-17T00:28:43;101932.66;;;2.32;75.21
71344;BME280;59146;43.850;25.948;2023-02-17T00:31:14;101922.19;;;2.57;74.13
71344;BME280;59146;43.850;25.948;2023-02-17T00:33:40;101885.41;;;2.21;74.21
71344;BME280;59146;43.850;25.948;2023-02-17T00:36:12;101886.22;;;2.31;74.46
71344;BME280;59146;43.850;25.948;2023-02-17T00:38:39;101892.16;;;2.47;74.21
71344;BME280;59146;43.850;25.948;2023-02-17T00:41:04;101866.28;;;2.59;73.49
71344;BME280;59146;43.850;25.948;2023-02-17T00:43:30;101934.84;;;2.99;73.08
71344;BME280;59146;43.850;25.948;2023-02-17T00:45:55;101908.31;;;2.77;73.42
71344;BME280;59146;43.850;25.948;2023-02-17T00:48:21;101854.28;;;2.52;73.06
71344;BME280;59146;43.850;25.948;2023-02-17T00:50:47;101903.09;;;2.83;72.60
71344;BME280;59146;43.850;25.948;2023-02-17T00:53:13;101818.31;;;2.32;72.38
71344;BME280;59146;43.850;25.948;2023-02-17T00:55:38;101854.38;;;2.35;72.28
71344;BME280;59146;43.850;25.948;2023-02-17T00:58:03;101847.59;;;2.20;73.03
71344;BME280;59146;43.850;25.948;2023-02-17T01:00:29;101886.06;;;2.61;73.32
71344;BME280;59146;43.850;25.948;2023-02-17T01:02:54;101870.56;;;2.66;73.26
71344;BME280;59146;43.850;25.948;2023-02-17T01:05:20;101894.38;;;2.98;72.53
71344;BME280;59146;43.850;25.948;2023-02-17T01:07:45;101898.53;;;3.17;72.16
71344;BME280;59146;43.850;25.948;2023-02-17T01:10:11;101830.19;;;2.54;73.03
71344;BME280;59146;43.850;25.948;2023-02-17T01:12:36;101882.41;;;2.92;72.89
71344;BME280;59146;43.850;25.948;2023-02-17T01:15:02;101836.94;;;2.75;72.68
71344;BME280;59146;43.850;25.948;2023-02-17T01:17:27;101873.59;;;3.14;71.98
71344;BME280;59146;43.850;25.948;2023-02-17T01:19:53;101887.41;;;3.10;72.09
71344;BME280;59146;43.850;25.948;2023-02-17T01:22:18;101878.94;;;2.95;72.27
71344;BME280;59146;43.850;25.948;2023-02-17T01:24:44;101869.56;;;2.82;72.56
71344;BME280;59146;43.850;25.948;2023-02-17T01:27:09;101886.75;;;2.83;71.64
71344;BME280;59146;43.850;25.948;2023-02-17T01:29:34;101763.44;;;2.13;71.79
71344;BME280;59146;43.850;25.948;2023-02-17T01:32:00;101862.03;;;2.50;72.63
71344;BME280;59146;43.850;25.948;2023-02-17T01:34:26;101846.75;;;2.21;73.73
71344;BME280;59146;43.850;25.948;2023-02-17T01:36:51;101849.28;;;2.27;74.09
71344;BME280;59146;43.850;25.948;2023-02-17T01:39:17;101863.75;;;2.50;73.72
71344;BME280;59146;43.850;25.948;2023-02-17T01:41:43;101866.34;;;2.50;73.57
71344;BME280;59146;43.850;25.948;2023-02-17T01:44:21;101862.81;;;2.63;73.93
71344;BME280;59146;43.850;25.948;2023-02-17T01:46:52;101812.31;;;2.31;74.38
71344;BME280;59146;43.850;25.948;2023-02-17T01:49:37;101801.91;;;2.45;74.34
71344;BME280;59146;43.850;25.948;2023-02-17T01:52:12;101793.16;;;2.63;73.19
71344;BME280;59146;43.850;25.948;2023-02-17T01:54:52;101794.91;;;2.61;72.50
71344;BME280;59146;43.850;25.948;2023-02-17T01:57:21;101834.44;;;2.66;72.36
71344;BME280;59146;43.850;25.948;2023-02-17T01:59:48;101816.47;;;2.51;73.13
71344;BME280;59146;43.850;25.948;2023-02-17T02:02:14;101809.69;;;2.37;72.88
71344;BME280;59146;43.850;25.948;2023-02-17T02:04:42;101847.38;;;2.61;72.96
71344;BME280;59146;43.850;25.948;2023-02-17T02:07:14;101850.81;;;2.56;72.80
71344;BME280;59146;43.850;25.948;2023-02-17T02:09:53;101826.03;;;2.30;73.81
71344;BME280;59146;43.850;25.948;2023-02-17T02:12:23;101844.88;;;2.43;73.94
71344;BME280;59146;43.850;25.948;2023-02-17T02:14:49;101781.47;;;2.15;73.61
71344;BME280;59146;43.850;25.948;2023-02-17T02:31:36;101814.06;;;2.28;72.80
71344;BME280;59146;43.850;25.948;2023-02-17T02:34:31;101773.00;;;1.92;73.59
71344;BME280;59146;43.850;25.948;2023-02-17T02:37:14;101748.16;;;1.86;73.56
71344;BME280;59146;43.850;25.948;2023-02-17T02:39:43;101813.94;;;2.45;73.36
71344;BME280;59146;43.850;25.948;2023-02-17T02:42:14;101815.59;;;2.52;72.71
71344;BME280;59146;43.850;25.948;2023-02-17T02:44:40;101760.09;;;1.98;72.98
71344;BME280;59146;43.850;25.948;2023-02-17T02:47:43;101800.22;;;2.38;72.96
71344;BME280;59146;43.850;25.948;2023-02-17T02:50:11;101736.81;;;2.13;72.57
71344;BME280;59146;43.850;25.948;2023-02-17T02:53:16;101820.56;;;2.79;71.41
71344;BME280;59146;43.850;25.948;2023-02-17T03:01:29;101821.75;;;2.34;72.25
71344;BME280;59146;43.850;25.948;2023-02-17T03:04:02;101813.94;;;2.46;71.86
71344;BME280;59146;43.850;25.948;2023-02-17T03:09:12;101678.78;;;1.50;72.18
71344;BME280;59146;43.850;25.948;2023-02-17T03:11:40;101786.66;;;2.13;72.22
71344;BME280;59146;43.850;25.948;2023-02-17T03:14:13;101651.41;;;1.34;71.86
71344;BME280;59146;43.850;25.948;2023-02-17T03:16:40;101741.22;;;1.91;72.18
71344;BME280;59146;43.850;25.948;2023-02-17T03:19:07;101833.84;;;2.18;73.60
71344;BME280;59146;43.850;25.948;2023-02-17T03:24:07;101834.03;;;1.82;77.97
71344;BME280;59146;43.850;25.948;2023-02-17T03:26:33;101783.50;;;1.52;78.64
71344;BME280;59146;43.850;25.948;2023-02-17T03:28:58;101774.91;;;1.52;78.21
71344;BME280;59146;43.850;25.948;2023-02-17T03:31:24;101755.22;;;1.37;78.42
71344;BME280;59146;43.850;25.948;2023-02-17T03:33:49;101762.09;;;1.34;78.16
71344;BME280;59146;43.850;25.948;2023-02-17T03:36:15;101792.88;;;1.64;78.36
71344;BME280;59146;43.850;25.948;2023-02-17T03:38:40;101773.16;;;1.58;78.03
71344;BME280;59146;43.850;25.948;2023-02-17T03:41:06;101767.91;;;1.78;76.67
71344;BME280;59146;43.850;25.948;2023-02-17T03:43:31;101757.69;;;1.60;76.73
71344;BME280;59146;43.850;25.948;2023-02-17T03:45:56;101660.97;;;0.96;77.23
71344;BME280;59146;43.850;25.948;2023-02-17T03:48:22;101827.91;;;2.07;77.42
71344;BME280;59146;43.850;25.948;2023-02-17T03:50:47;101720.81;;;1.55;76.70
71344;BME280;59146;43.850;25.948;2023-02-17T03:53:13;101769.47;;;2.08;75.38
71344;BME280;59146;43.850;25.948;2023-02-17T03:55:38;101766.13;;;1.97;74.58
71344;BME280;59146;43.850;25.948;2023-02-17T03:58:03;101726.88;;;1.40;76.04
71344;BME280;59146;43.850;25.948;2023-02-17T04:00:29;101755.03;;;1.78;76.23
71344;BME280;59146;43.850;25.948;2023-02-17T04:02:55;101805.47;;;2.24;74.26
71344;BME280;59146;43.850;25.948;2023-02-17T04:05:22;101769.41;;;2.20;73.29
71344;BME280;59146;43.850;25.948;2023-02-17T04:07:47;101819.88;;;2.54;72.14
71344;BME280;59146;43.850;25.948;2023-02-17T04:10:13;101755.00;;;1.90;72.38
71344;BME280;59146;43.850;25.948;2023-02-17T04:12:39;101696.00;;;1.37;72.29
71344;BME280;59146;43.850;25.948;2023-02-17T04:15:04;101823.59;;;2.12;73.56
71344;BME280;59146;43.850;25.948;2023-02-17T04:17:30;101816.66;;;2.23;72.21
71344;BME280;59146;43.850;25.948;2023-02-17T04:19:56;101781.59;;;1.91;72.33
71344;BME280;59146;43.850;25.948;2023-02-17T04:22:22;101706.25;;;1.40;72.99
71344;BME280;59146;43.850;25.948;2023-02-17T04:24:47;101813.28;;;2.12;73.53
71344;BME280;59146;43.850;25.948;2023-02-17T04:27:13;101807.16;;;2.27;73.59
71344;BME280;59146;43.850;25.948;2023-02-17T04:29:38;101742.88;;;2.04;73.27
71344;BME280;59146;43.850;25.948;2023-02-17T04:32:03;101744.34;;;2.37;72.89
71344;BME280;59146;43.850;25.948;2023-02-17T04:34:29;101840.41;;;2.74;73.46
71344;BME280;59146;43.850;25.948;2023-02-17T04:36:54;101824.97;;;2.68;73.75
71344;BME280;59146;43.850;25.948;2023-02-17T04:39:20;101846.34;;;2.79;73.20
71344;BME280;59146;43.850;25.948;2023-02-17T04:41:46;101753.84;;;2.36;71.88
71344;BME280;59146;43.850;25.948;2023-02-17T04:44:11;101789.66;;;2.71;70.72
71344;BME280;59146;43.850;25.948;2023-02-17T04:46:36;101847.03;;;3.02;70.51
71344;BME280;59146;43.850;25.948;2023-02-17T04:49:02;101799.94;;;2.76;70.63
71344;BME280;59146;43.850;25.948;2023-02-17T04:51:27;101766.47;;;2.70;70.00
71344;BME280;59146;43.850;25.948;2023-02-17T04:53:53;101780.03;;;2.90;69.94
71344;BME280;59146;43.850;25.948;2023-02-17T04:56:19;101816.75;;;3.22;69.56
71344;BME280;59146;43.850;25.948;2023-02-17T04:58:44;101758.63;;;2.80;69.64
71344;BME280;59146;43.850;25.948;2023-02-17T05:01:09;101768.03;;;2.86;69.62
71344;BME280;59146;43.850;25.948;2023-02-17T05:03:35;101759.38;;;2.90;69.17
71344;BME280;59146;43.850;25.948;2023-02-17T05:06:00;101848.31;;;3.51;68.51
71344;BME280;59146;43.850;25.948;2023-02-17T05:08:26;101851.75;;;3.50;68.66
71344;BME280;59146;43.850;25.948;2023-02-17T05:10:51;101768.84;;;2.92;69.09
71344;BME280;59146;43.850;25.948;2023-02-17T05:13:17;101832.88;;;3.42;69.06
71344;BME280;59146;43.850;25.948;2023-02-17T05:15:43;101795.06;;;3.37;68.58
71344;BME280;59146;43.850;25.948;2023-02-17T05:18:09;101725.72;;;3.03;68.60
71344;BME280;59146;43.850;25.948;2023-02-17T05:20:35;101784.75;;;3.34;68.78
71344;BME280;59146;43.850;25.948;2023-02-17T05:23:00;101792.44;;;3.40;68.99
71344;BME280;59146;43.850;25.948;2023-02-17T05:25:26;101732.69;;;2.94;69.53
71344;BME280;59146;43.850;25.948;2023-02-17T05:27:51;101751.34;;;3.18;69.52
71344;BME280;59146;43.850;25.948;2023-02-17T05:30:17;101848.16;;;3.63;69.89
71344;BME280;59146;43.850;25.948;2023-02-17T05:32:43;101861.78;;;3.79;70.14
71344;BME280;59146;43.850;25.948;2023-02-17T05:35:08;101850.53;;;3.83;70.17
71344;BME280;59146;43.850;25.948;2023-02-17T05:37:33;101844.53;;;3.79;70.03
71344;BME280;59146;43.850;25.948;2023-02-17T05:39:59;101812.00;;;3.63;69.81
71344;BME280;59146;43.850;25.948;2023-02-17T05:42:24;101808.41;;;3.73;69.80
71344;BME280;59146;43.850;25.948;2023-02-17T05:44:53;101816.81;;;3.90;69.08
71344;BME280;59146;43.850;25.948;2023-02-17T05:47:19;101820.28;;;3.91;68.75
71344;BME280;59146;43.850;25.948;2023-02-17T05:49:44;101864.59;;;4.28;69.01
71344;BME280;59146;43.850;25.948;2023-02-17T05:52:10;101835.72;;;3.95;69.41
71344;BME280;59146;43.850;25.948;2023-02-17T05:54:35;101842.41;;;4.12;69.14
71344;BME280;59146;43.850;25.948;2023-02-17T05:57:01;101811.69;;;4.50;67.35
71344;BME280;59146;43.850;25.948;2023-02-17T05:59:26;101820.19;;;4.58;66.78
71344;BME280;59146;43.850;25.948;2023-02-17T06:01:51;101818.63;;;4.48;67.31
71344;BME280;59146;43.850;25.948;2023-02-17T06:04:17;101862.38;;;4.64;67.92
71344;BME280;59146;43.850;25.948;2023-02-17T06:06:43;101889.03;;;5.24;66.86
71344;BME280;59146;43.850;25.948;2023-02-17T06:09:08;101838.78;;;5.33;66.02
71344;BME280;59146;43.850;25.948;2023-02-17T06:11:34;101803.13;;;5.45;64.69
71344;BME280;59146;43.850;25.948;2023-02-17T06:13:59;101891.41;;;6.28;63.72
71344;BME280;59146;43.850;25.948;2023-02-17T06:16:25;101832.47;;;5.93;63.71
71344;BME280;59146;43.850;25.948;2023-02-17T06:18:50;101866.78;;;6.07;63.68
71344;BME280;59146;43.850;25.948;2023-02-17T06:21:16;101878.66;;;6.56;63.01
71344;BME280;59146;43.850;25.948;2023-02-17T06:23:41;101857.13;;;6.89;61.06
71344;BME280;59146;43.850;25.948;2023-02-17T06:26:06;101818.38;;;6.45;61.70
71344;BME280;59146;43.850;25.948;2023-02-17T06:28:32;101917.22;;;6.74;62.52
71344;BME280;59146;43.850;25.948;2023-02-17T06:30:57;101862.16;;;6.58;62.45
71344;BME280;59146;43.850;25.948;2023-02-17T06:33:23;101886.47;;;6.92;61.60
71344;BME280;59146;43.850;25.948;2023-02-17T06:35:49;101892.25;;;7.05;61.46
71344;BME280;59146;43.850;25.948;2023-02-17T06:38:15;101925.13;;;6.69;62.38
71344;BME280;59146;43.850;25.948;2023-02-17T06:40:41;101870.78;;;5.76;65.25
71344;BME280;59146;43.850;25.948;2023-02-17T06:43:06;101861.66;;;6.03;65.00
71344;BME280;59146;43.850;25.948;2023-02-17T06:45:32;101908.25;;;6.49;64.09
71344;BME280;59146;43.850;25.948;2023-02-17T06:47:57;101899.44;;;6.56;63.91
71344;BME280;59146;43.850;25.948;2023-02-17T06:50:23;101871.38;;;6.33;64.20
71344;BME280;59146;43.850;25.948;2023-02-17T06:52:48;101833.13;;;6.41;63.22
71344;BME280;59146;43.850;25.948;2023-02-17T06:55:14;101881.81;;;6.70;62.67
71344;BME280;59146;43.850;25.948;2023-02-17T06:57:39;101850.38;;;6.45;62.40
71344;BME280;59146;43.850;25.948;2023-02-17T07:00:06;101915.50;;;6.74;62.98
71344;BME280;59146;43.850;25.948;2023-02-17T07:02:32;101922.97;;;6.48;63.94
71344;BME280;59146;43.850;25.948;2023-02-17T07:04:58;101868.38;;;6.53;63.45
71344;BME280;59146;43.850;25.948;2023-02-17T07:07:23;101928.97;;;6.90;62.75
71344;BME280;59146;43.850;25.948;2023-02-17T07:09:48;101755.53;;;5.49;63.04
71344;BME280;59146;43.850;25.948;2023-02-17T07:12:14;101934.13;;;6.53;64.03
71344;BME280;59146;43.850;25.948;2023-02-17T07:14:39;101904.94;;;6.42;63.94
71344;BME280;59146;43.850;25.948;2023-02-17T07:17:05;101891.53;;;6.22;63.75
71344;BME280;59146;43.850;25.948;2023-02-17T07:19:30;101894.91;;;6.65;62.75
71344;BME280;59146;43.850;25.948;2023-02-17T07:21:56;101941.09;;;6.51;63.72
71344;BME280;59146;43.850;25.948;2023-02-17T07:24:21;101938.59;;;6.47;63.99
71344;BME280;59146;43.850;25.948;2023-02-17T07:26:47;101855.94;;;6.27;63.96
71344;BME280;59146;43.850;25.948;2023-02-17T07:29:13;101927.72;;;6.69;63.63
71344;BME280;59146;43.850;25.948;2023-02-17T07:31:38;101922.66;;;6.63;63.77
71344;BME280;59146;43.850;25.948;2023-02-17T07:34:04;101948.53;;;6.66;63.61
71344;BME280;59146;43.850;25.948;2023-02-17T07:36:30;101967.28;;;6.80;63.09
71344;BME280;59146;43.850;25.948;2023-02-17T07:38:56;101922.78;;;6.57;63.11
71344;BME280;59146;43.850;25.948;2023-02-17T07:41:23;101893.75;;;6.40;63.27
71344;BME280;59146;43.850;25.948;2023-02-17T07:43:52;101943.47;;;6.60;63.26
71344;BME280;59146;43.850;25.948;2023-02-17T07:46:18;101897.38;;;6.31;63.49
71344;BME280;59146;43.850;25.948;2023-02-17T07:48:45;101939.00;;;6.67;63.66
71344;BME280;59146;43.850;25.948;2023-02-17T07:51:13;101855.91;;;5.87;64.45
71344;BME280;59146;43.850;25.948;2023-02-17T07:53:39;101898.72;;;6.09;64.66
71344;BME280;59146;43.850;25.948;2023-02-17T07:56:10;101948.97;;;6.47;64.05
71344;BME280;59146;43.850;25.948;2023-02-17T07:58:38;101954.50;;;6.71;63.53
71344;BME280;59146;43.850;25.948;2023-02-17T08:01:08;101897.34;;;6.33;64.11
71344;BME280;59146;43.850;25.948;2023-02-17T08:03:34;101883.38;;;5.99;65.00
71344;BME280;59146;43.850;25.948;2023-02-17T08:05:59;101912.47;;;6.13;64.96
71344;BME280;59146;43.850;25.948;2023-02-17T08:08:25;101935.31;;;6.37;64.75
71344;BME280;59146;43.850;25.948;2023-02-17T08:11:14;101870.34;;;6.00;64.97
71344;BME280;59146;43.850;25.948;2023-02-17T08:13:59;101836.03;;;5.88;64.83
71344;BME280;59146;43.850;25.948;2023-02-17T08:16:24;101965.28;;;6.91;64.41
71344;BME280;59146;43.850;25.948;2023-02-17T08:18:56;101927.91;;;6.60;64.67
71344;BME280;59146;43.850;25.948;2023-02-17T08:21:23;101942.75;;;6.54;65.13
71344;BME280;59146;43.850;25.948;2023-02-17T08:23:48;101842.25;;;6.22;64.30
71344;BME280;59146;43.850;25.948;2023-02-17T08:26:14;101943.28;;;7.06;63.70
71344;BME280;59146;43.850;25.948;2023-02-17T08:28:42;101955.38;;;7.08;64.12
71344;BME280;59146;43.850;25.948;2023-02-17T08:31:18;101962.34;;;7.06;64.17
71344;BME280;59146;43.850;25.948;2023-02-17T08:33:43;101888.50;;;6.80;63.79
71344;BME280;59146;43.850;25.948;2023-02-17T08:36:09;101943.59;;;7.29;63.45
71344;BME280;59146;43.850;25.948;2023-02-17T08:38:35;101942.22;;;7.14;63.60
71344;BME280;59146;43.850;25.948;2023-02-17T08:41:00;101969.22;;;7.44;63.07
71344;BME280;59146;43.850;25.948;2023-02-17T08:43:26;101921.16;;;7.27;63.43
71344;BME280;59146;43.850;25.948;2023-02-17T08:45:51;101965.72;;;7.80;62.41
71344;BME280;59146;43.850;25.948;2023-02-17T08:48:17;101941.19;;;7.57;62.53
71344;BME280;59146;43.850;25.948;2023-02-17T08:50:42;101907.41;;;7.21;63.43
71344;BME280;59146;43.850;25.948;2023-02-17T08:53:10;101962.09;;;7.86;62.78
71344;BME280;59146;43.850;25.948;2023-02-17T08:55:36;101984.53;;;8.22;62.23
71344;BME280;59146;43.850;25.948;2023-02-17T08:58:01;101911.31;;;7.73;61.71
71344;BME280;59146;43.850;25.948;2023-02-17T09:00:27;101913.31;;;7.62;61.92
71344;BME280;59146;43.850;25.948;2023-02-17T09:02:53;101959.00;;;8.04;61.70
71344;BME280;59146;43.850;25.948;2023-02-17T09:05:19;101904.91;;;8.15;61.29
71344;BME280;59146;43.850;25.948;2023-02-17T09:07:44;101912.63;;;8.18;60.89
71344;BME280;59146;43.850;25.948;2023-02-17T09:10:10;101907.53;;;8.44;60.14
71344;BME280;59146;43.850;25.948;2023-02-17T09:12:36;101958.94;;;8.96;59.56
71344;BME280;59146;43.850;25.948;2023-02-17T09:15:01;101948.47;;;9.24;58.79
71344;BME280;59146;43.850;25.948;2023-02-17T09:17:26;101931.88;;;9.26;58.68
71344;BME280;59146;43.850;25.948;2023-02-17T09:19:52;101942.81;;;9.11;58.70
71344;BME280;59146;43.850;25.948;2023-02-17T09:22:17;101887.78;;;8.94;58.30
71344;BME280;59146;43.850;25.948;2023-02-17T09:24:45;101910.13;;;9.01;58.36
71344;BME280;59146;43.850;25.948;2023-02-17T09:27:11;101868.69;;;8.94;57.64
71344;BME280;59146;43.850;25.948;2023-02-17T09:29:37;101951.16;;;9.48;58.19
71344;BME280;59146;43.850;25.948;2023-02-17T09:32:07;101965.34;;;9.40;58.27
71344;BME280;59146;43.850;25.948;2023-02-17T09:34:37;101948.59;;;9.47;58.08
71344;BME280;59146;43.850;25.948;2023-02-17T09:37:04;101926.41;;;9.60;56.52
71344;BME280;59146;43.850;25.948;2023-02-17T09:39:34;101888.94;;;9.38;57.35
71344;BME280;59146;43.850;25.948;2023-02-17T09:41:59;101944.81;;;9.82;56.86
71344;BME280;59146;43.850;25.948;2023-02-17T09:44:32;101843.06;;;9.57;55.68
71344;BME280;59146;43.850;25.948;2023-02-17T09:47:16;101936.84;;;10.09;55.48
71344;BME280;59146;43.850;25.948;2023-02-17T09:49:47;101948.63;;;10.21;55.59
71344;BME280;59146;43.850;25.948;2023-02-17T09:55:02;101951.44;;;10.39;55.40
71344;BME280;59146;43.850;25.948;2023-02-17T09:57:33;101899.97;;;10.18;55.28
71344;BME280;59146;43.850;25.948;2023-02-17T10:00:08;101917.13;;;10.25;56.25
71344;BME280;59146;43.850;25.948;2023-02-17T10:02:43;101874.56;;;10.23;54.44
71344;BME280;59146;43.850;25.948;2023-02-17T10:05:13;101926.47;;;10.77;53.78
71344;BME280;59146;43.850;25.948;2023-02-17T10:07:47;101861.38;;;10.26;53.63
71344;BME280;59146;43.850;25.948;2023-02-17T10:10:27;101917.06;;;10.50;53.41
71344;BME280;59146;43.850;25.948;2023-02-17T10:12:55;101896.19;;;10.72;52.38
71344;BME280;59146;43.850;25.948;2023-02-17T10:15:25;101889.94;;;10.76;52.79
71344;BME280;59146;43.850;25.948;2023-02-17T10:20:41;101897.47;;;10.83;52.88
71344;BME280;59146;43.850;25.948;2023-02-17T10:23:19;101835.16;;;10.73;51.78
71344;BME280;59146;43.850;25.948;2023-02-17T10:28:54;101838.81;;;11.10;51.63
71344;BME280;59146;43.850;25.948;2023-02-17T10:39:50;101834.97;;;11.59;50.58
71344;BME280;59146;43.850;25.948;2023-02-17T10:42:28;101883.31;;;11.72;51.06
71344;BME280;59146;43.850;25.948;2023-02-17T10:45:03;101891.72;;;12.18;49.58
71344;BME280;59146;43.850;25.948;2023-02-17T10:47:30;101865.81;;;12.12;50.03
71344;BME280;59146;43.850;25.948;2023-02-17T10:49:57;101848.38;;;12.11;49.87
71344;BME280;59146;43.850;25.948;2023-02-17T10:52:45;101883.81;;;12.38;50.06
71344;BME280;59146;43.850;25.948;2023-02-17T10:57:49;101856.63;;;12.22;49.79
71344;BME280;59146;43.850;25.948;2023-02-17T11:00:17;101867.22;;;12.56;49.24
71344;BME280;59146;43.850;25.948;2023-02-17T11:02:45;101808.25;;;12.29;48.13
71344;BME280;59146;43.850;25.948;2023-02-17T11:05:32;101864.13;;;12.48;48.64
71344;BME280;59146;43.850;25.948;2023-02-17T11:08:24;101893.03;;;12.82;48.27
71344;BME280;59146;43.850;25.948;2023-02-17T11:11:22;101883.56;;;12.61;48.41
71344;BME280;59146;43.850;25.948;2023-02-17T11:16:33;101883.38;;;12.47;48.56
71344;BME280;59146;43.850;25.948;2023-02-17T11:19:00;101808.47;;;12.24;48.35
71344;BME280;59146;43.850;25.948;2023-02-17T11:21:27;101825.94;;;12.42;48.09
71344;BME280;59146;43.850;25.948;2023-02-17T11:23:59;101822.31;;;12.45;47.55
71344;BME280;59146;43.850;25.948;2023-02-17T11:26:30;101809.19;;;11.90;48.02
71344;BME280;59146;43.850;25.948;2023-02-17T11:29:23;101846.56;;;12.50;48.04
71344;BME280;59146;43.850;25.948;2023-02-17T11:31:59;101863.69;;;12.75;47.66
71344;BME280;59146;43.850;25.948;2023-02-17T11:34:28;101808.41;;;12.61;46.98
71344;BME280;59146;43.850;25.948;2023-02-17T11:37:21;101855.00;;;12.92;47.04
71344;BME280;59146;43.850;25.948;2023-02-17T11:39:47;101854.31;;;13.06;47.33
71344;BME280;59146;43.850;25.948;2023-02-17T11:42:30;101835.81;;;13.26;46.48
71344;BME280;59146;43.850;25.948;2023-02-17T11:44:57;101777.41;;;13.05;46.24
71344;BME280;59146;43.850;25.948;2023-02-17T11:47:42;101844.41;;;13.29;46.63
71344;BME280;59146;43.850;25.948;2023-02-17T11:50:49;101828.16;;;13.38;46.44
71344;BME280;59146;43.850;25.948;2023-02-17T11:56:16;101822.06;;;13.88;46.17
71344;BME280;59146;43.850;25.948;2023-02-17T11:59:01;101816.25;;;13.66;44.37
71344;BME280;59146;43.850;25.948;2023-02-17T12:04:23;101813.88;;;13.77;42.73
71344;BME280;59146;43.850;25.948;2023-02-17T12:12:51;101813.88;;;13.77;42.23
71344;BME280;59146;43.850;25.948;2023-02-17T12:24:04;101805.78;;;14.29;42.64
71344;BME280;59146;43.850;25.948;2023-02-17T12:26:45;101724.03;;;13.72;42.71
71344;BME280;59146;43.850;25.948;2023-02-17T12:32:12;101747.50;;;14.06;42.25
71344;BME280;59146;43.850;25.948;2023-02-17T12:34:49;101764.88;;;13.93;42.45
71344;BME280;59146;43.850;25.948;2023-02-17T12:37:23;101788.59;;;13.91;43.36
71344;BME280;59146;43.850;25.948;2023-02-17T12:39:59;101745.75;;;13.42;43.64
71344;BME280;59146;43.850;25.948;2023-02-17T12:42:34;101781.56;;;13.92;43.21
71344;BME280;59146;43.850;25.948;2023-02-17T12:45:15;101795.22;;;14.14;42.83
71344;BME280;59146;43.850;25.948;2023-02-17T12:48:06;101797.81;;;13.83;43.46
71344;BME280;59146;43.850;25.948;2023-02-17T12:50:47;101794.59;;;13.93;43.25
71344;BME280;59146;43.850;25.948;2023-02-17T12:53:33;101713.44;;;13.89;42.31
71344;BME280;59146;43.850;25.948;2023-02-17T12:58:47;101736.13;;;14.21;41.77
71344;BME280;59146;43.850;25.948;2023-02-17T13:01:16;101787.94;;;14.50;41.63
71344;BME280;59146;43.850;25.948;2023-02-17T13:03:44;101752.25;;;14.46;41.32
71344;BME280;59146;43.850;25.948;2023-02-17T13:06:23;101734.72;;;14.31;41.23
71344;BME280;59146;43.850;25.948;2023-02-17T13:08:55;101791.78;;;14.45;41.50
71344;BME280;59146;43.850;25.948;2023-02-17T13:13:52;101784.00;;;14.43;40.51
71344;BME280;59146;43.850;25.948;2023-02-17T13:16:17;101740.06;;;14.29;40.50
71344;BME280;59146;43.850;25.948;2023-02-17T13:18:45;101751.75;;;14.24;40.46
71344;BME280;59146;43.850;25.948;2023-02-17T13:24:13;101768.38;;;14.56;40.03
71344;BME280;59146;43.850;25.948;2023-02-17T13:26:43;101776.72;;;14.62;39.47
71344;BME280;59146;43.850;25.948;2023-02-17T13:32:00;101770.31;;;14.52;39.18
71344;BME280;59146;43.850;25.948;2023-02-17T13:37:25;101772.25;;;14.94;38.00
71344;BME280;59146;43.850;25.948;2023-02-17T13:42:53;101752.19;;;14.77;38.45
71344;BME280;59146;43.850;25.948;2023-02-17T13:48:13;101782.72;;;15.09;37.49
71344;BME280;59146;43.850;25.948;2023-02-17T13:51:00;101704.69;;;14.35;38.29
71344;BME280;59146;43.850;25.948;2023-02-17T13:53:37;101757.91;;;14.54;37.98
71344;BME280;59146;43.850;25.948;2023-02-17T13:56:21;101779.13;;;14.81;37.11
71344;BME280;59146;43.850;25.948;2023-02-17T13:58:47;101793.41;;;14.77;36.81
71344;BME280;59146;43.850;25.948;2023-02-17T14:01:25;101777.91;;;14.72;36.73
71344;BME280;59146;43.850;25.948;2023-02-17T14:03:53;101753.13;;;14.31;37.19
71344;BME280;59146;43.850;25.948;2023-02-17T14:06:39;101792.59;;;14.61;37.21
71344;BME280;59146;43.850;25.948;2023-02-17T14:09:25;101736.31;;;14.33;37.55
71344;BME280;59146;43.850;25.948;2023-02-17T14:11:52;101750.63;;;14.59;37.78
71344;BME280;59146;43.850;25.948;2023-02-17T14:14:18;101740.06;;;14.45;38.52
71344;BME280;59146;43.850;25.948;2023-02-17T14:16:44;101777.34;;;14.52;39.04
71344;BME280;59146;43.850;25.948;2023-02-17T14:19:19;101796.66;;;14.66;39.16
71344;BME280;59146;43.850;25.948;2023-02-17T14:22:04;101750.22;;;14.51;38.43
71344;BME280;59146;43.850;25.948;2023-02-17T14:24:31;101746.69;;;14.37;39.07
71344;BME280;59146;43.850;25.948;2023-02-17T14:27:05;101766.50;;;14.42;39.41
71344;BME280;59146;43.850;25.948;2023-02-17T14:29:47;101797.16;;;14.73;38.94